createdAt,value
2022-09-27T00:02:24.961Z,13.60
2022-09-27T00:05:16.650Z,13.70
2022-09-27T00:08:08.000Z,13.70
2022-09-27T00:11:02.858Z,13.70
2022-09-27T00:13:55.081Z,13.60
2022-09-27T00:16:47.064Z,13.60
2022-09-27T00:19:38.365Z,13.50
2022-09-27T00:22:29.928Z,13.40
2022-09-27T00:28:02.792Z,13.40
2022-09-27T00:30:55.105Z,13.50
2022-09-27T00:33:46.587Z,13.40
2022-09-27T00:36:37.980Z,13.40
2022-09-27T00:39:29.467Z,13.50
2022-09-27T00:42:21.044Z,13.50
2022-09-27T00:47:57.068Z,13.50
2022-09-27T00:50:51.953Z,13.50
2022-09-27T00:53:46.696Z,13.40
2022-09-27T00:56:39.227Z,13.40
2022-09-27T00:59:33.810Z,13.40
2022-09-27T01:02:25.380Z,13.40
2022-09-27T01:07:56.853Z,13.30
2022-09-27T01:10:52.641Z,13.40
2022-09-27T01:13:53.045Z,13.40
2022-09-27T01:16:48.169Z,13.30
2022-09-27T01:19:50.994Z,13.30
2022-09-27T01:22:45.797Z,13.30
2022-09-27T01:25:49.536Z,13.30
2022-09-27T01:28:50.450Z,13.40
2022-09-27T01:31:46.027Z,13.30
2022-09-27T01:34:42.211Z,13.20
2022-09-27T01:37:37.988Z,13.20
2022-09-27T01:40:32.550Z,13.20
2022-09-27T01:43:31.750Z,13.20
2022-09-27T01:49:06.045Z,13.30
2022-09-27T01:52:00.350Z,13.30
2022-09-27T01:57:33.946Z,13.20
2022-09-27T02:00:27.105Z,13.10
2022-09-27T02:03:21.727Z,13.00
2022-09-27T02:09:05.984Z,13.20
2022-09-27T02:14:41.201Z,13.20
2022-09-27T02:17:37.786Z,13.20
2022-09-27T02:20:32.984Z,13.20
2022-09-27T02:23:27.101Z,13.20
2022-09-27T02:26:22.728Z,13.20
2022-09-27T02:29:17.647Z,13.20
2022-09-27T02:32:10.541Z,13.20
2022-09-27T02:35:05.470Z,13.20
2022-09-27T02:37:57.803Z,13.20
2022-09-27T02:40:49.841Z,13.10
2022-09-27T02:43:41.622Z,12.80
2022-09-27T02:49:50.822Z,12.40
2022-09-27T02:53:05.043Z,12.30
2022-09-27T02:56:01.915Z,12.20
2022-09-27T02:59:01.904Z,12.20
2022-09-27T03:02:14.876Z,12.20
2022-09-27T03:08:06.393Z,12.30
2022-09-27T03:10:57.473Z,12.30
2022-09-27T03:14:07.262Z,12.30
2022-09-27T03:16:41.242Z,12.30
2022-09-27T03:19:34.532Z,12.20
2022-09-27T03:22:43.980Z,12.20
2022-09-27T03:25:35.178Z,12.20
2022-09-27T03:28:29.109Z,12.10
2022-09-27T03:31:21.194Z,12.10
2022-09-27T03:34:30.968Z,12.10
2022-09-27T03:37:21.980Z,12.10
2022-09-27T03:40:13.725Z,12.10
2022-09-27T03:45:45.854Z,12.20
2022-09-27T03:48:37.362Z,12.20
2022-09-27T03:51:28.438Z,12.30
2022-09-27T03:54:20.363Z,12.30
2022-09-27T03:57:11.563Z,12.30
2022-09-27T04:02:41.632Z,12.40
2022-09-27T04:08:32.672Z,12.40
2022-09-27T04:11:24.022Z,12.50
2022-09-27T04:14:15.409Z,12.50
2022-09-27T04:19:46.869Z,12.60
2022-09-27T04:22:41.885Z,12.60
2022-09-27T04:25:33.504Z,12.60
2022-09-27T04:28:26.529Z,12.60
2022-09-27T04:31:17.977Z,12.60
2022-09-27T04:34:13.936Z,12.60
2022-09-27T04:37:06.913Z,12.70
2022-09-27T04:40:02.946Z,12.70
2022-09-27T04:42:54.807Z,12.70
2022-09-27T04:45:46.669Z,12.70
2022-09-27T04:48:38.218Z,12.70
2022-09-27T04:51:29.833Z,12.70
2022-09-27T04:54:21.710Z,12.70
2022-09-27T04:57:14.980Z,12.70
2022-09-27T05:00:09.015Z,12.60
2022-09-27T05:03:01.625Z,12.70
2022-09-27T05:06:00.886Z,12.70
2022-09-27T05:08:52.444Z,12.70
2022-09-27T05:11:45.257Z,12.80
2022-09-27T05:17:28.529Z,12.80
2022-09-27T05:23:03.592Z,12.80
2022-09-27T05:25:56.692Z,12.80
2022-09-27T05:28:49.139Z,12.80
2022-09-27T05:31:40.709Z,12.80
2022-09-27T05:34:32.750Z,12.80
2022-09-27T05:40:22.498Z,12.70
2022-09-27T05:43:00.157Z,12.80
2022-09-27T05:48:30.512Z,12.80
2022-09-27T05:51:23.267Z,12.80
2022-09-27T05:54:15.273Z,12.80
2022-09-27T05:57:08.457Z,12.90
2022-09-27T06:00:12.804Z,12.90
2022-09-27T06:03:08.068Z,12.90
2022-09-27T06:06:19.862Z,12.80
2022-09-27T06:09:14.124Z,12.90
2022-09-27T06:12:05.823Z,12.80
2022-09-27T06:17:39.986Z,12.80
2022-09-27T06:23:14.689Z,12.70
2022-09-27T06:26:09.088Z,12.60
2022-09-27T06:29:19.216Z,12.60
2022-09-27T06:32:13.576Z,12.60
2022-09-27T06:35:13.131Z,12.60
2022-09-27T06:38:07.310Z,12.60
2022-09-27T06:41:00.464Z,12.50
2022-09-27T06:43:53.171Z,12.60
2022-09-27T06:47:02.562Z,12.60
2022-09-27T06:52:50.759Z,12.60
2022-09-27T06:55:43.727Z,12.70
2022-09-27T06:58:53.456Z,12.80
2022-09-27T07:01:46.718Z,12.90
2022-09-27T07:04:56.365Z,13.10
2022-09-27T07:07:53.748Z,13.20
2022-09-27T07:13:24.209Z,13.40
2022-09-27T07:16:16.426Z,13.50
2022-09-27T07:19:10.304Z,13.60
2022-09-27T07:22:01.899Z,13.70
2022-09-27T07:24:53.390Z,13.80
2022-09-27T07:27:46.685Z,13.80
2022-09-27T07:30:40.392Z,13.90
2022-09-27T07:33:32.883Z,13.80
2022-09-27T07:36:26.105Z,13.80
2022-09-27T07:39:17.899Z,13.90
2022-09-27T07:42:09.518Z,13.90
2022-09-27T07:47:43.501Z,13.90
2022-09-27T07:53:16.441Z,14.00
2022-09-27T07:56:15.540Z,14.10
2022-09-27T07:59:07.117Z,13.90
2022-09-27T08:01:58.700Z,14.00
2022-09-27T08:07:30.591Z,13.70
2022-09-27T08:13:05.304Z,13.90
2022-09-27T08:15:59.641Z,13.80
2022-09-27T08:18:51.719Z,13.90
2022-09-27T08:21:44.984Z,13.80
2022-09-27T08:24:37.947Z,13.80
2022-09-27T08:27:31.341Z,13.80
2022-09-27T08:30:24.642Z,14.00
2022-09-27T08:35:57.065Z,14.20
2022-09-27T08:38:51.027Z,14.30
2022-09-27T08:44:30.171Z,14.20
2022-09-27T08:47:33.860Z,14.20
2022-09-27T08:53:09.236Z,14.10
2022-09-27T08:58:46.654Z,14.10
2022-09-27T09:01:42.772Z,14.00
2022-09-27T09:07:40.439Z,14.30
2022-09-27T09:13:16.236Z,14.70
2022-09-27T09:19:06.427Z,14.50
2022-09-27T09:22:10.181Z,14.50
2022-09-27T09:25:15.726Z,14.40
2022-09-27T09:28:15.744Z,14.30
2022-09-27T09:31:11.011Z,14.10
2022-09-27T09:34:06.317Z,14.00
2022-09-27T09:39:40.310Z,13.70
2022-09-27T09:42:36.160Z,13.60
2022-09-27T09:45:31.485Z,13.40
2022-09-27T09:48:28.248Z,13.70
2022-09-27T09:51:23.199Z,13.80
2022-09-27T09:54:21.451Z,13.90
2022-09-27T09:59:59.192Z,13.90
2022-09-27T10:02:53.349Z,13.90
2022-09-27T10:08:25.811Z,14.60
2022-09-27T10:11:24.034Z,14.90
2022-09-27T10:14:19.504Z,15.20
2022-09-27T10:17:16.373Z,15.40
2022-09-27T10:22:50.018Z,15.60
2022-09-27T10:25:53.894Z,15.60
2022-09-27T10:28:59.084Z,15.40
2022-09-27T10:31:55.832Z,15.20
2022-09-27T10:37:29.164Z,14.90
2022-09-27T10:40:33.934Z,14.90
2022-09-27T10:43:33.152Z,14.90
2022-09-27T10:46:41.555Z,14.80
2022-09-27T10:52:36.464Z,14.60
2022-09-27T10:58:19.839Z,14.40
2022-09-27T11:01:13.313Z,14.60
2022-09-27T11:04:22.310Z,14.60
2022-09-27T11:07:20.146Z,14.80
2022-09-27T11:10:27.747Z,14.90
2022-09-27T11:16:19.641Z,15.20
2022-09-27T11:19:17.402Z,15.40
2022-09-27T11:22:17.615Z,15.50
2022-09-27T11:25:17.185Z,15.70
2022-09-27T11:28:15.284Z,16.00
2022-09-27T11:31:13.003Z,16.20
2022-09-27T11:34:19.228Z,16.20
2022-09-27T11:43:07.031Z,15.80
2022-09-27T11:48:53.224Z,15.60
2022-09-27T11:52:04.113Z,15.60
2022-09-27T11:57:40.666Z,15.70
2022-09-27T12:03:29.418Z,16.10
2022-09-27T12:06:24.543Z,16.50
2022-09-27T12:09:20.069Z,16.80
2022-09-27T12:12:16.077Z,16.70
2022-09-27T12:17:55.477Z,17.10
2022-09-27T12:20:47.286Z,17.00
2022-09-27T12:23:43.231Z,17.00
2022-09-27T12:26:42.025Z,17.00
2022-09-27T12:32:19.753Z,17.40
2022-09-27T12:35:17.034Z,17.40
2022-09-27T12:38:13.151Z,17.30
2022-09-27T12:41:09.234Z,17.20
2022-09-27T12:44:02.800Z,16.90
2022-09-27T12:47:02.656Z,16.90
2022-09-27T12:52:38.193Z,16.80
2022-09-27T12:59:21.989Z,16.30
2022-09-27T13:03:14.187Z,16.10
2022-09-27T13:06:13.699Z,16.00
2022-09-27T13:09:46.308Z,15.80
2022-09-27T13:12:38.802Z,15.70
2022-09-27T13:18:25.801Z,15.30
2022-09-27T13:23:55.115Z,15.10
2022-09-27T13:29:34.069Z,15.00
2022-09-27T13:32:28.534Z,14.90
2022-09-27T13:38:21.765Z,15.40
2022-09-27T13:44:05.387Z,15.90
2022-09-27T13:47:01.667Z,15.90
2022-09-27T13:52:38.223Z,16.20
2022-09-27T13:55:48.690Z,16.40
2022-09-27T13:58:52.446Z,16.40
2022-09-27T14:02:02.536Z,16.70
2022-09-27T14:07:45.205Z,17.80
2022-09-27T14:10:39.963Z,19.30
2022-09-27T14:13:32.679Z,21.70
2022-09-27T14:16:26.855Z,22.10
2022-09-27T14:19:21.485Z,22.20
2022-09-27T14:22:17.570Z,23.00
2022-09-27T14:28:01.928Z,23.40
2022-09-27T14:31:16.302Z,23.00
2022-09-27T14:34:25.708Z,21.60
2022-09-27T14:37:26.427Z,20.70
2022-09-27T14:40:24.040Z,20.10
2022-09-27T14:46:03.058Z,19.60
2022-09-27T14:48:55.575Z,19.70
2022-09-27T14:51:53.665Z,19.80
2022-09-27T14:54:46.593Z,19.50
2022-09-27T14:57:40.364Z,18.90
2022-09-27T15:03:19.908Z,18.30
2022-09-27T15:06:12.298Z,18.00
2022-09-27T15:09:14.222Z,17.90
2022-09-27T15:12:08.873Z,17.60
2022-09-27T15:15:01.819Z,17.40
2022-09-27T15:20:35.313Z,17.10
2022-09-27T15:23:31.290Z,17.00
2022-09-27T15:26:25.674Z,16.90
2022-09-27T15:29:23.200Z,16.80
2022-09-27T15:32:18.857Z,16.90
2022-09-27T15:37:49.222Z,16.80
2022-09-27T15:43:53.926Z,16.90
2022-09-27T15:46:46.785Z,17.00
2022-09-27T15:49:39.167Z,17.10
2022-09-27T15:52:44.802Z,17.10
2022-09-27T15:55:39.241Z,17.10
2022-09-27T15:58:31.858Z,16.90
2022-09-27T16:01:23.580Z,16.90
2022-09-27T16:04:15.211Z,16.60
2022-09-27T16:07:09.396Z,16.40
2022-09-27T16:12:40.220Z,16.10
2022-09-27T16:18:19.863Z,16.10
2022-09-27T16:21:11.430Z,16.10
2022-09-27T16:24:06.323Z,16.00
2022-09-27T16:29:35.989Z,16.00
2022-09-27T16:32:27.491Z,16.00
2022-09-27T16:35:20.537Z,15.90
2022-09-27T16:38:12.633Z,15.70
2022-09-27T16:41:04.660Z,15.60
2022-09-27T16:43:55.907Z,15.50
2022-09-27T16:46:47.453Z,15.50
2022-09-27T16:49:56.908Z,15.40
2022-09-27T16:52:50.216Z,15.40
2022-09-27T16:58:20.498Z,15.40
2022-09-27T17:01:11.546Z,15.30
2022-09-27T17:04:04.027Z,15.20
2022-09-27T17:06:55.777Z,15.20
2022-09-27T17:09:47.243Z,15.10
2022-09-27T17:12:38.504Z,14.70
2022-09-27T17:18:09.231Z,14.50
2022-09-27T17:21:04.016Z,14.60
2022-09-27T17:23:55.553Z,14.70
2022-09-27T17:26:47.267Z,14.40
2022-09-27T17:29:39.584Z,14.20
2022-09-27T17:32:31.788Z,14.30
2022-09-27T17:35:22.970Z,14.30
2022-09-27T17:38:14.888Z,14.30
2022-09-27T17:43:49.147Z,14.40
2022-09-27T17:46:40.748Z,14.30
2022-09-27T17:49:51.717Z,14.40
2022-09-27T17:55:27.204Z,14.30
2022-09-27T17:58:18.404Z,14.30
2022-09-27T18:01:10.117Z,14.30
2022-09-27T18:04:04.428Z,14.40
2022-09-27T18:06:56.337Z,14.30
2022-09-27T18:09:48.107Z,14.30
2022-09-27T18:12:41.295Z,14.30
2022-09-27T18:15:32.676Z,14.30
2022-09-27T18:18:23.939Z,14.20
2022-09-27T18:21:18.589Z,14.10
2022-09-27T18:24:11.047Z,14.00
2022-09-27T18:27:03.721Z,14.00
2022-09-27T18:30:06.369Z,14.00
2022-09-27T18:32:57.478Z,14.00
2022-09-27T18:35:48.547Z,14.00
2022-09-27T18:38:40.250Z,14.10
2022-09-27T18:41:33.461Z,14.10
2022-09-27T18:44:24.527Z,14.10
2022-09-27T18:47:15.867Z,14.10
2022-09-27T18:52:47.452Z,14.20
2022-09-27T18:55:41.708Z,14.20
2022-09-27T18:58:33.657Z,14.10
2022-09-27T19:01:26.335Z,14.10
2022-09-27T19:06:57.883Z,14.00
2022-09-27T19:09:49.339Z,13.90
2022-09-27T19:12:40.800Z,13.90
2022-09-27T19:18:11.273Z,13.80
2022-09-27T19:21:10.323Z,13.90
2022-09-27T19:24:00.483Z,13.90
2022-09-27T19:26:53.715Z,13.90
2022-09-27T19:29:44.875Z,13.90
2022-09-27T19:32:36.272Z,13.90
2022-09-27T19:38:06.134Z,13.80
2022-09-27T19:40:57.381Z,13.80
2022-09-27T19:43:52.788Z,13.80
2022-09-27T19:46:45.377Z,13.80
2022-09-27T19:49:36.674Z,13.90
2022-09-27T19:52:28.266Z,13.90
2022-09-27T19:58:00.878Z,14.00
2022-09-27T20:03:31.174Z,13.90
2022-09-27T20:06:23.350Z,13.90
2022-09-27T20:09:15.843Z,13.80
2022-09-27T20:12:08.350Z,13.80
2022-09-27T20:14:59.874Z,13.80
2022-09-27T20:17:51.429Z,13.80
2022-09-27T20:20:43.431Z,13.70
2022-09-27T20:23:36.494Z,13.70
2022-09-27T20:26:29.501Z,13.70
2022-09-27T20:29:20.639Z,13.70
2022-09-27T20:32:28.454Z,13.60
2022-09-27T20:35:05.816Z,13.60
2022-09-27T20:37:57.073Z,13.50
2022-09-27T20:40:55.725Z,13.50
2022-09-27T20:43:47.934Z,13.50
2022-09-27T20:46:40.787Z,13.60
2022-09-27T20:49:33.541Z,13.60
2022-09-27T20:52:25.600Z,13.50
2022-09-27T20:57:58.217Z,13.60
2022-09-27T21:00:49.752Z,13.60
2022-09-27T21:03:41.025Z,13.50
2022-09-27T21:06:33.545Z,13.60
2022-09-27T21:09:24.650Z,13.60
2022-09-27T21:12:16.018Z,13.60
2022-09-27T21:17:47.382Z,13.60
2022-09-27T21:20:38.749Z,13.60
2022-09-27T21:23:30.859Z,13.60
2022-09-27T21:26:24.049Z,13.60
2022-09-27T21:29:16.284Z,13.60
2022-09-27T21:32:07.534Z,13.60
2022-09-27T21:34:59.243Z,13.50
2022-09-27T21:40:30.397Z,13.50
2022-09-27T21:43:21.822Z,13.50
2022-09-27T21:48:54.731Z,13.50
2022-09-27T21:51:46.115Z,13.50
2022-09-27T21:57:17.734Z,13.30
2022-09-27T22:00:19.086Z,13.30
2022-09-27T22:03:10.484Z,13.30
2022-09-27T22:06:05.708Z,13.30
2022-09-27T22:08:57.788Z,13.20
2022-09-27T22:14:28.287Z,13.20
2022-09-27T22:17:19.531Z,13.20
2022-09-27T22:20:11.783Z,13.30
2022-09-27T22:23:04.533Z,13.30
2022-09-27T22:28:40.357Z,13.30
2022-09-27T22:31:31.799Z,13.30
2022-09-27T22:34:29.440Z,13.30
2022-09-27T22:37:20.761Z,13.30
2022-09-27T22:40:13.047Z,13.30
2022-09-27T22:43:04.356Z,13.30
2022-09-27T22:45:55.701Z,13.30
2022-09-27T22:48:47.107Z,13.30
2022-09-27T22:51:38.624Z,13.30
2022-09-27T22:54:30.615Z,13.30
2022-09-27T22:57:22.123Z,13.30
2022-09-27T23:02:57.358Z,13.30
2022-09-27T23:05:48.435Z,13.30
2022-09-27T23:08:40.443Z,13.20
2022-09-27T23:14:15.043Z,13.20
2022-09-27T23:17:06.302Z,13.10
2022-09-27T23:19:57.552Z,13.20
2022-09-27T23:22:59.682Z,13.10
2022-09-27T23:25:50.791Z,13.10
2022-09-27T23:28:42.380Z,13.10
2022-09-27T23:31:34.943Z,13.20
2022-09-27T23:34:25.935Z,13.10
2022-09-27T23:39:55.965Z,13.10
2022-09-27T23:42:47.084Z,13.20
2022-09-27T23:45:38.595Z,13.20
2022-09-27T23:48:30.144Z,13.20
2022-09-27T23:53:59.729Z,13.10
2022-09-27T23:56:51.259Z,13.00
2022-09-27T23:59:42.917Z,12.90
